Time;durP1;ratioP1;P1;durP2;ratioP2;P2;SDS_P1;SDS_P2;PMS_P1;PMS_P2;Temp;Humidity;BMP_temperature;BMP_pressure;BME280_temperature;BME280_humidity;BME280_pressure;Samples;Min_cycle;Max_cycle;Signal;HPM_P1;HPM_P2
2021/03/29 00:02:05;;;;;;;33.78;15.50;;;;;;;5.47;65.46;101003.19;5117552;28;20070;-55
2021/03/29 00:04:31;;;;;;;32.25;15.25;;;;;;;5.56;65.25;100998.13;5100527;28;20071;-55
2021/03/29 00:06:57;;;;;;;33.22;15.60;;;;;;;5.59;65.08;101004.22;5117763;28;20051;-56
2021/03/29 00:09:24;;;;;;;32.70;15.18;;;;;;;5.65;64.93;101000.81;5117224;28;20055;-55
2021/03/29 00:11:49;;;;;;;34.20;15.20;;;;;;;5.69;64.74;100996.53;5118064;28;20052;-55
2021/03/29 00:14:15;;;;;;;33.53;16.20;;;;;;;5.73;64.51;101007.00;5117620;28;20058;-55
2021/03/29 00:16:41;;;;;;;33.63;14.85;;;;;;;5.74;64.60;101002.69;5100915;28;20083;-55
2021/03/29 00:19:08;;;;;;;30.00;14.25;;;;;;;5.78;64.52;100997.53;5100558;28;20047;-55
2021/03/29 00:21:34;;;;;;;35.00;13.68;;;;;;;5.80;64.14;100993.25;5118351;28;20057;-55
2021/03/29 00:24:00;;;;;;;30.45;14.38;;;;;;;5.82;64.26;100991.53;5100373;28;20039;-55
2021/03/29 00:26:26;;;;;;;27.15;13.20;;;;;;;5.85;64.20;100982.91;5100158;28;20050;-55
2021/03/29 00:28:51;;;;;;;31.20;14.43;;;;;;;5.74;65.38;100992.28;5117083;28;20102;-55
2021/03/29 00:31:17;;;;;;;30.27;14.00;;;;;;;5.76;65.09;100977.59;5118451;28;20040;-55
2021/03/29 00:33:43;;;;;;;32.85;13.95;;;;;;;5.81;64.93;100988.91;5116869;28;20054;-55
2021/03/29 00:36:10;;;;;;;29.73;12.93;;;;;;;5.82;64.93;100986.34;5117162;28;20051;-55
2021/03/29 00:38:36;;;;;;;29.88;13.65;;;;;;;5.84;65.22;100982.00;5117132;28;20051;-55
2021/03/29 00:41:06;;;;;;;31.85;14.57;;;;;;;5.84;65.17;100987.22;5100208;28;20047;-55
2021/03/29 00:43:33;;;;;;;31.75;14.35;;;;;;;5.87;64.75;100976.00;5117736;28;20062;-55
2021/03/29 00:45:59;;;;;;;30.58;14.10;;;;;;;5.89;64.69;100974.28;5116981;28;20446;-55
2021/03/29 00:48:26;;;;;;;32.40;14.50;;;;;;;5.82;65.85;100975.94;5116995;28;20062;-55
2021/03/29 00:51:11;;;;;;;27.08;14.15;;;;;;;5.88;65.38;100984.66;5116565;28;20043;-55
2021/03/29 00:53:43;;;;;;;33.95;14.70;;;;;;;5.89;65.59;100989.91;5117692;28;20120;-55
2021/03/29 00:56:10;;;;;;;37.17;14.73;;;;;;;5.91;65.85;100987.28;5117315;28;20181;-55
2021/03/29 00:58:36;;;;;;;31.00;13.88;;;;;;;5.94;65.90;100983.03;5117373;28;20437;-55
2021/03/29 01:01:10;;;;;;;31.70;15.30;;;;;;;5.92;66.62;100989.06;5116481;28;20042;-56
2021/03/29 01:03:41;;;;;;;30.20;13.70;;;;;;;5.90;66.86;100991.63;5116701;28;20043;-55
2021/03/29 01:06:10;;;;;;;31.02;14.82;;;;;;;5.94;66.87;100985.63;5117530;28;20100;-55
2021/03/29 01:08:37;;;;;;;27.23;13.23;;;;;;;6.00;66.43;100987.44;5117378;28;20067;-55
2021/03/29 01:11:04;;;;;;;22.65;11.35;;;;;;;6.06;66.14;100996.19;5116550;28;20067;-55
2021/03/29 01:13:30;;;;;;;24.80;12.02;;;;;;;6.06;66.30;100997.94;5116177;28;20093;-55
2021/03/29 01:15:56;;;;;;;31.15;14.07;;;;;;;5.99;67.00;100997.00;5099742;28;20049;-55
2021/03/29 01:18:22;;;;;;;26.95;12.30;;;;;;;6.04;66.88;100995.28;5082443;28;20108;-55
2021/03/29 01:21:25;;;;;;;27.02;12.35;;;;;;;6.13;66.66;100988.47;5116111;28;20112;-55
2021/03/29 01:23:52;;;;;;;26.63;12.27;;;;;;;6.12;66.83;100991.94;5115986;28;20052;-55
2021/03/29 01:26:42;;;;;;;26.13;11.43;;;;;;;6.16;66.87;100988.50;5099283;28;20070;-55
2021/03/29 01:29:08;;;;;;;24.30;11.75;;;;;;;6.22;66.76;100993.78;5109095;28;20058;-55
2021/03/29 01:31:34;;;;;;;22.45;10.82;;;;;;;6.29;66.44;100990.41;5082356;28;20059;-55
2021/03/29 01:34:00;;;;;;;26.10;11.88;;;;;;;6.31;66.63;100993.91;5098896;28;20442;-56
2021/03/29 01:36:25;;;;;;;24.25;11.02;;;;;;;6.34;66.62;100988.72;5115869;28;20049;-56
2021/03/29 01:38:51;;;;;;;23.95;10.63;;;;;;;6.37;66.84;100985.25;5115851;28;20426;-56
2021/03/29 01:41:17;;;;;;;18.67;9.45;;;;;;;6.42;66.83;100989.66;5116054;28;20074;-56
2021/03/29 01:43:44;;;;;;;23.15;10.13;;;;;;;6.44;66.80;100980.16;5098764;28;20055;-55
2021/03/29 01:46:10;;;;;;;18.38;8.68;;;;;;;6.51;66.55;100975.88;5115684;28;20032;-56
2021/03/29 01:48:36;;;;;;;21.08;9.02;;;;;;;6.51;66.55;100970.69;5115656;28;20158;-55
2021/03/29 01:51:02;;;;;;;18.65;7.85;;;;;;;6.55;66.74;100965.50;5116833;28;20077;-56
2021/03/29 01:53:28;;;;;;;23.70;9.57;;;;;;;6.54;67.18;100971.59;5115852;28;20445;-55
2021/03/29 01:55:53;;;;;;;23.67;9.32;;;;;;;6.59;66.66;100971.63;5116562;28;20437;-55
2021/03/29 01:58:19;;;;;;;25.05;10.30;;;;;;;6.63;66.23;100972.50;5115839;28;20075;-55
2021/03/29 02:00:55;;;;;;;20.80;8.93;;;;;;;6.68;66.39;100966.50;5116422;28;20036;-55
2021/03/29 02:03:21;;;;;;;20.60;7.88;;;;;;;6.67;66.56;100971.72;5115826;28;20413;-55
2021/03/29 02:05:46;;;;;;;13.80;7.50;;;;;;;6.72;66.33;100972.59;5115771;28;20066;-55
2021/03/29 02:08:15;;;;;;;18.10;9.02;;;;;;;6.75;66.45;100970.03;5115535;28;20058;-55
2021/03/29 02:10:41;;;;;;;17.55;7.93;;;;;;;6.76;66.41;100974.41;5116542;28;20109;-56
2021/03/29 02:13:08;;;;;;;19.25;8.52;;;;;;;6.78;66.62;100975.25;5115318;28;20044;-56
2021/03/29 02:15:34;;;;;;;18.95;8.27;;;;;;;6.79;66.48;100971.78;5116574;28;20048;-56
2021/03/29 02:18:06;;;;;;;14.75;7.45;;;;;;;6.84;66.54;100974.47;5115687;28;20051;-56
2021/03/29 02:20:36;;;;;;;19.48;8.98;;;;;;;6.87;66.69;100970.16;5116209;28;20044;-56
2021/03/29 02:23:02;;;;;;;16.77;8.48;;;;;;;6.85;66.65;100965.78;5116226;28;20437;-56
2021/03/29 02:25:29;;;;;;;20.73;8.55;;;;;;;6.90;66.54;100969.31;5115277;28;20077;-56
2021/03/29 02:27:55;;;;;;;20.10;8.75;;;;;;;6.93;66.32;100970.19;5115333;28;20043;-55
2021/03/29 02:30:24;;;;;;;22.52;9.30;;;;;;;6.95;66.17;100965.84;5115314;28;20036;-56
2021/03/29 02:32:50;;;;;;;18.05;8.27;;;;;;;6.95;66.04;100960.63;5115136;28;20047;-56
2021/03/29 02:35:16;;;;;;;18.05;8.55;;;;;;;6.97;65.94;100963.28;5115496;28;20047;-56
2021/03/29 02:37:47;;;;;;;16.55;7.68;;;;;;;7.02;65.64;100970.28;5115520;28;20035;-56
2021/03/29 02:40:14;;;;;;;18.88;7.22;;;;;;;7.01;65.90;100967.63;5115424;28;20051;-55
2021/03/29 02:42:40;;;;;;;14.05;7.43;;;;;;;7.02;66.13;100972.00;5115391;28;20334;-55
2021/03/29 02:45:10;;;;;;;15.90;7.82;;;;;;;7.08;65.77;100974.63;5115169;28;20047;-56
2021/03/29 02:47:40;;;;;;;14.05;7.43;;;;;;;7.07;66.04;100977.25;5116260;28;20105;-55
2021/03/29 02:50:10;;;;;;;22.25;9.25;;;;;;;7.08;65.98;100968.56;5116147;28;20051;-55
2021/03/29 02:52:37;;;;;;;14.60;7.85;;;;;;;7.02;65.92;100948.56;5116152;28;20039;-56
2021/03/29 02:55:06;;;;;;;16.67;7.35;;;;;;;7.09;65.90;100965.13;5098186;28;20052;-56
2021/03/29 02:57:32;;;;;;;18.33;7.70;;;;;;;7.05;66.22;100965.94;5114993;28;20073;-55
2021/03/29 02:59:58;;;;;;;18.83;7.15;;;;;;;7.06;66.24;100971.16;5114991;28;20128;-56
2021/03/29 03:02:23;;;;;;;13.32;6.65;;;;;;;7.05;66.18;100961.59;5081327;28;20065;-56
2021/03/29 03:04:49;;;;;;;14.50;6.65;;;;;;;7.08;66.05;100958.13;5115780;28;20051;-56
2021/03/29 03:07:15;;;;;;;14.90;7.00;;;;;;;7.07;66.29;100959.88;5115698;28;20115;-56
2021/03/29 03:09:41;;;;;;;13.93;7.15;;;;;;;7.13;66.00;100951.25;5118526;28;20525;-56
2021/03/29 03:12:08;;;;;;;13.32;6.30;;;;;;;7.15;65.97;100959.91;5119653;28;20051;-56
2021/03/29 03:14:34;;;;;;;15.40;6.97;;;;;;;7.18;65.63;100957.34;5119042;28;20056;-56
2021/03/29 03:17:00;;;;;;;15.23;6.70;;;;;;;7.22;65.50;100956.53;5119523;28;20047;-56
2021/03/29 03:19:25;;;;;;;14.23;6.95;;;;;;;7.23;65.61;100958.25;5119597;28;20357;-56
2021/03/29 03:21:51;;;;;;;15.25;6.88;;;;;;;7.25;65.74;100959.16;5101522;28;20434;-56
2021/03/29 03:24:17;;;;;;;13.10;6.68;;;;;;;7.27;65.48;100960.00;5119493;28;20044;-55
2021/03/29 03:26:43;;;;;;;14.80;7.22;;;;;;;7.18;65.94;100962.56;5101591;28;20354;-56
2021/03/29 03:29:08;;;;;;;16.52;7.15;;;;;;;7.20;66.06;100960.84;5118515;28;20399;-56
2021/03/29 03:31:34;;;;;;;14.27;6.95;;;;;;;7.25;65.98;100960.03;5118505;28;20442;-56
2021/03/29 03:34:00;;;;;;;11.80;6.25;;;;;;;7.29;65.67;100947.88;5118374;28;20404;-56
2021/03/29 03:36:27;;;;;;;13.68;6.70;;;;;;;7.31;65.61;100945.25;5119288;28;20048;-56
2021/03/29 03:38:53;;;;;;;15.15;6.53;;;;;;;7.34;65.54;100953.97;5119258;28;20131;-56
2021/03/29 03:41:28;;;;;;;16.70;7.53;;;;;;;7.31;65.61;100956.56;5118610;28;20124;-56
2021/03/29 03:43:55;;;;;;;17.77;7.28;;;;;;;7.26;66.11;100956.53;5101624;28;20425;-56
2021/03/29 03:46:25;;;;;;;16.23;6.53;;;;;;;7.28;66.04;100953.97;5118200;28;20116;-56
2021/03/29 03:48:51;;;;;;;13.10;5.53;;;;;;;7.34;65.87;100950.50;5118199;28;20108;-56
2021/03/29 03:51:17;;;;;;;11.45;5.45;;;;;;;7.38;65.51;100944.47;5118096;28;20062;-56
2021/03/29 03:53:43;;;;;;;13.95;6.18;;;;;;;7.37;65.72;100956.59;5118007;28;20044;-56
2021/03/29 03:56:09;;;;;;;15.82;5.75;;;;;;;7.36;65.86;100947.03;5118620;28;20100;-56
2021/03/29 03:58:35;;;;;;;17.02;5.97;;;;;;;7.41;65.67;100941.84;5118025;28;20062;-56
2021/03/29 04:01:01;;;;;;;10.13;5.15;;;;;;;7.41;65.60;100942.75;5117959;28;20407;-56
2021/03/29 04:03:27;;;;;;;14.02;5.70;;;;;;;7.35;66.26;100939.22;5117620;28;20051;-56
2021/03/29 04:05:53;;;;;;;12.70;5.40;;;;;;;7.37;66.20;100954.00;5118147;28;20044;-56
2021/03/29 04:08:19;;;;;;;11.98;5.72;;;;;;;7.32;66.41;100954.84;5118125;28;20438;-56
2021/03/29 04:10:55;;;;;;;13.38;5.95;;;;;;;7.36;66.36;100960.09;5118763;28;20051;-56
2021/03/29 04:13:28;;;;;;;16.98;5.90;;;;;;;7.36;66.36;100947.03;5118501;28;20047;-56
2021/03/29 04:15:59;;;;;;;11.52;5.05;;;;;;;7.45;65.79;100941.91;5117999;28;20062;-56
2021/03/29 04:18:25;;;;;;;13.10;5.65;;;;;;;7.48;66.05;100943.66;5117426;28;20046;-56
2021/03/29 04:20:51;;;;;;;15.73;5.82;;;;;;;7.51;65.73;100948.88;5118581;28;20035;-45
2021/03/29 04:23:17;;;;;;;16.08;7.45;;;;;;;7.51;65.67;100943.66;5117222;28;20043;-44
2021/03/29 04:25:43;;;;;;;15.18;6.38;;;;;;;7.54;65.70;100954.13;5117243;28;20040;-44
2021/03/29 04:28:09;;;;;;;15.30;6.90;;;;;;;7.50;65.80;100947.13;5117411;28;20047;-44
2021/03/29 04:30:34;;;;;;;13.48;5.45;;;;;;;7.52;65.88;100953.22;5117881;28;20056;-44
2021/03/29 04:33:00;;;;;;;13.55;5.53;;;;;;;7.51;65.59;100951.50;5116971;28;20031;-45
2021/03/29 04:35:26;;;;;;;13.25;5.75;;;;;;;7.50;65.89;100958.41;5118062;28;20494;-45
2021/03/29 04:37:53;;;;;;;12.00;5.60;;;;;;;7.53;65.75;100959.31;5118605;28;20048;-44
2021/03/29 04:40:20;;;;;;;13.38;5.80;;;;;;;7.62;65.47;100954.16;5117666;28;20437;-44
2021/03/29 04:42:45;;;;;;;11.05;5.28;;;;;;;7.62;65.64;100959.38;5117646;28;20040;-44
2021/03/29 04:45:12;;;;;;;11.90;5.95;;;;;;;7.61;65.57;100963.72;5117941;28;20040;-44
2021/03/29 04:47:38;;;;;;;17.02;7.25;;;;;;;7.65;65.37;100960.25;5116680;28;20048;-44
2021/03/29 04:50:04;;;;;;;16.05;6.55;;;;;;;7.67;65.13;100953.31;5116648;28;20156;-44
2021/03/29 04:52:30;;;;;;;12.70;6.18;;;;;;;7.68;65.35;100962.00;5117659;28;20047;-44
2021/03/29 04:54:56;;;;;;;12.07;6.28;;;;;;;7.76;64.90;100962.03;5117736;28;20466;-44
2021/03/29 04:57:21;;;;;;;17.13;7.25;;;;;;;7.77;65.09;100958.56;5117420;28;20358;-44
2021/03/29 04:59:47;;;;;;;23.67;10.13;;;;;;;7.79;64.66;100956.84;5117935;28;20039;-44
2021/03/29 05:02:13;;;;;;;23.70;11.25;;;;;;;7.80;64.67;100976.81;5117258;28;20057;-44
2021/03/29 05:04:39;;;;;;;24.48;11.07;;;;;;;7.80;65.00;100976.81;5116679;28;20051;-44
2021/03/29 05:07:11;;;;;;;20.83;11.00;;;;;;;7.85;64.62;100972.50;5117504;28;20388;-45
2021/03/29 05:09:37;;;;;;;20.63;10.32;;;;;;;7.82;64.90;100964.69;5117084;28;20060;-44
2021/03/29 05:12:12;;;;;;;24.45;11.27;;;;;;;7.85;64.70;100975.13;5116561;28;20048;-44
2021/03/29 05:14:39;;;;;;;21.80;10.38;;;;;;;7.90;64.92;100979.50;5117462;28;20047;-44
2021/03/29 05:17:06;;;;;;;21.63;9.52;;;;;;;7.92;64.78;100988.19;5117338;28;20052;-44
2021/03/29 05:19:31;;;;;;;19.42;9.55;;;;;;;7.96;64.55;100987.34;5117254;28;20400;-44
2021/03/29 05:21:58;;;;;;;21.98;11.10;;;;;;;8.02;64.53;100991.72;5117262;28;20107;-44
2021/03/29 05:24:24;;;;;;;21.98;9.70;;;;;;;8.05;64.38;100994.34;5115989;28;20044;-45
2021/03/29 05:26:50;;;;;;;20.35;10.07;;;;;;;8.08;64.32;100994.34;5116965;28;20054;-44
2021/03/29 05:29:16;;;;;;;16.70;8.63;;;;;;;8.14;64.23;100994.38;5117086;28;20047;-44
2021/03/29 05:31:41;;;;;;;15.45;8.43;;;;;;;8.18;64.41;100997.88;5116667;28;20081;-44
2021/03/29 05:34:08;;;;;;;15.32;8.15;;;;;;;8.18;64.32;100993.50;5117147;28;20429;-45
2021/03/29 05:36:34;;;;;;;19.40;8.80;;;;;;;8.24;64.36;100994.41;5117046;28;20098;-45
2021/03/29 05:39:00;;;;;;;22.35;10.88;;;;;;;8.25;64.32;100999.63;5117276;28;20048;-45
2021/03/29 05:41:25;;;;;;;18.70;10.88;;;;;;;8.24;63.94;100995.28;5116959;27;20040;-44
2021/03/29 05:43:51;;;;;;;19.90;9.73;;;;;;;8.27;64.33;101003.13;5098852;28;20180;-44
2021/03/29 05:46:17;;;;;;;21.10;10.98;;;;;;;8.32;64.22;100995.28;5115873;28;20036;-44
2021/03/29 05:48:43;;;;;;;15.88;8.80;;;;;;;8.32;63.63;100985.75;5115908;28;20150;-44
2021/03/29 05:51:08;;;;;;;16.70;9.07;;;;;;;8.41;63.86;101003.19;5115644;28;20052;-44
2021/03/29 05:53:37;;;;;;;15.32;8.45;;;;;;;8.49;63.61;101001.47;5116376;28;20051;-45
2021/03/29 05:56:04;;;;;;;16.10;7.28;;;;;;;8.55;63.94;101003.25;5116754;28;20081;-45
2021/03/29 06:00:55;;;;;;;13.65;7.80;;;;;;;8.64;63.80;101006.75;5116500;28;20046;-44
2021/03/29 06:03:35;;;;;;;19.17;9.35;;;;;;;8.70;63.64;101005.88;5116719;28;20070;-44
2021/03/29 06:06:12;;;;;;;20.00;11.40;;;;;;;8.78;63.52;101008.50;5115800;28;20111;-45
2021/03/29 06:08:42;;;;;;;25.45;11.85;;;;;;;8.87;63.06;101008.50;5115797;28;20056;-45
2021/03/29 06:11:26;;;;;;;26.05;11.77;;;;;;;8.92;62.70;101003.28;5116274;28;20455;-45
2021/03/29 06:14:20;;;;;;;21.42;10.35;;;;;;;8.98;62.92;101005.91;5116859;28;20398;-45
2021/03/29 06:16:59;;;;;;;17.77;9.15;;;;;;;9.09;62.61;101007.63;5116294;28;20044;-45
2021/03/29 06:19:38;;;;;;;19.50;9.73;;;;;;;9.18;62.35;101000.69;5115715;28;20047;-45
2021/03/29 06:22:08;;;;;;;19.65;10.23;;;;;;;9.32;62.31;101005.00;5117322;28;20055;-45
2021/03/29 06:24:52;;;;;;;25.98;12.80;;;;;;;9.32;62.06;101004.13;5115902;28;20436;-45
2021/03/29 06:27:22;;;;;;;29.05;14.10;;;;;;;9.42;62.44;101005.00;5115640;28;20115;-45
2021/03/29 06:29:49;;;;;;;23.10;11.90;;;;;;;9.49;62.24;101007.63;5098527;28;20471;-45
2021/03/29 06:32:18;;;;;;;26.65;10.43;;;;;;;9.59;62.12;101006.72;5116064;28;20457;-45
2021/03/29 06:34:48;;;;;;;22.23;10.43;;;;;;;9.69;62.08;100998.88;5115200;28;20048;-45
2021/03/29 06:37:14;;;;;;;30.27;10.63;;;;;;;9.91;61.41;100997.03;5116589;28;20422;-45
2021/03/29 06:39:41;;;;;;;19.40;10.15;;;;;;;10.16;61.35;101001.28;5081832;28;20056;-57
2021/03/29 06:42:06;;;;;;;13.70;6.72;;;;;;;10.37;60.24;101003.00;5116383;28;20052;-57
2021/03/29 06:44:34;;;;;;;9.57;6.65;;;;;;;10.58;59.51;101007.22;5119367;28;20074;-57
2021/03/29 06:47:10;;;;;;;14.15;6.95;;;;;;;10.62;57.69;101005.44;5119273;28;20139;-57
2021/03/29 06:49:41;;;;;;;20.90;8.35;;;;;;;10.75;57.82;101010.59;5120220;28;20112;-57
2021/03/29 06:52:41;;;;;;;18.58;7.45;;;;;;;10.88;57.62;101003.50;5119984;28;20047;-57
2021/03/29 06:55:21;;;;;;;17.13;7.22;;;;;;;11.17;57.72;101005.03;5077503;28;20067;-57
2021/03/29 06:58:08;;;;;;;18.40;7.10;;;;;;;11.43;56.52;101004.81;5112244;28;20461;-58
2021/03/29 07:00:38;;;;;;;16.80;6.90;;;;;;;11.67;56.65;100995.84;5120025;28;20058;-58
2021/03/29 07:03:08;;;;;;;16.05;7.25;;;;;;;12.04;55.76;100995.44;5101766;28;20039;-58
2021/03/29 07:05:34;;;;;;;16.92;6.97;;;;;;;12.49;55.51;101004.47;5119607;28;20043;-58
2021/03/29 07:08:01;;;;;;;17.17;7.55;;;;;;;13.06;54.39;100998.34;5119879;27;20040;-58
2021/03/29 07:10:27;;;;;;;15.00;7.30;;;;;;;13.52;52.33;101001.09;5119818;28;20052;-58
2021/03/29 07:12:53;;;;;;;13.60;7.15;;;;;;;13.76;51.39;100998.88;5119358;28;20136;-58
2021/03/29 07:15:19;;;;;;;15.43;7.65;;;;;;;14.02;51.02;101001.00;5119426;28;20395;-58
2021/03/29 07:17:45;;;;;;;10.15;6.05;;;;;;;14.32;49.51;100996.84;5119673;28;20047;-59
2021/03/29 07:20:16;;;;;;;16.23;6.20;;;;;;;14.84;48.56;101000.97;5119333;28;20445;-59
2021/03/29 07:22:42;;;;;;;12.57;5.78;;;;;;;15.58;46.88;100993.84;5119576;28;20050;-59
2021/03/29 07:25:10;;;;;;;12.27;5.53;;;;;;;15.75;46.44;100994.25;5119285;28;20051;-59
2021/03/29 07:27:42;;;;;;;10.60;5.25;;;;;;;15.80;45.77;100975.66;5119123;28;20053;-59
2021/03/29 07:30:09;;;;;;;11.65;5.93;;;;;;;15.76;45.35;100992.47;5118661;28;20071;-58
2021/03/29 07:32:38;;;;;;;14.98;6.13;;;;;;;15.68;45.49;100984.78;5101567;28;20048;-58
2021/03/29 07:35:05;;;;;;;12.93;5.55;;;;;;;15.59;45.66;100985.84;5119418;28;20047;-59
2021/03/29 07:37:41;;;;;;;10.95;5.78;;;;;;;15.63;45.33;100989.28;5119293;28;20073;-59
2021/03/29 07:40:28;;;;;;;11.25;5.35;;;;;;;15.58;46.00;100985.91;5101682;28;20051;-59
2021/03/29 07:42:54;;;;;;;12.30;5.75;;;;;;;15.54;46.09;100987.78;5119101;28;20118;-59
2021/03/29 07:45:24;;;;;;;9.65;4.90;;;;;;;15.35;45.53;100994.44;5115421;28;20101;-58
2021/03/29 07:47:52;;;;;;;13.13;5.78;;;;;;;15.07;46.33;100989.84;5100634;28;20447;-59
2021/03/29 07:50:38;;;;;;;16.25;6.43;;;;;;;14.97;45.98;100988.34;5097796;28;20128;-59
2021/03/29 07:53:08;;;;;;;9.77;4.82;;;;;;;14.77;46.66;100993.25;5096501;28;20044;-59
2021/03/29 07:55:50;;;;;;;12.52;5.80;;;;;;;14.98;46.43;100998.00;5097723;28;20050;-58
2021/03/29 07:58:20;;;;;;;11.60;5.18;;;;;;;15.22;46.44;100996.53;5098560;28;20052;-59
2021/03/29 08:00:48;;;;;;;10.90;5.03;;;;;;;15.62;45.78;100992.84;5098264;28;20459;-58
2021/03/29 08:03:14;;;;;;;9.57;5.20;;;;;;;15.92;45.74;101004.34;5098415;28;20040;-59
2021/03/29 08:05:43;;;;;;;12.80;5.82;;;;;;;15.91;44.54;100996.47;5098425;28;20090;-59
2021/03/29 08:08:27;;;;;;;15.43;6.18;;;;;;;15.96;44.49;101002.53;5097775;28;20457;-58
2021/03/29 08:11:05;;;;;;;14.80;5.82;;;;;;;16.16;44.53;101004.59;5097972;28;20055;-59
2021/03/29 08:13:41;;;;;;;9.88;5.38;;;;;;;16.30;44.68;101000.59;5080497;28;20059;-59
2021/03/29 08:16:13;;;;;;;13.55;6.20;;;;;;;16.54;44.14;101009.59;5097053;28;20044;-59
2021/03/29 08:19:07;;;;;;;11.32;5.25;;;;;;;16.88;44.18;101015.63;5080162;28;20143;-59
2021/03/29 08:21:52;;;;;;;12.70;5.10;;;;;;;16.98;42.32;101007.31;5096895;28;20056;-59
2021/03/29 08:24:33;;;;;;;8.02;4.28;;;;;;;17.08;42.29;101009.69;5097997;28;20048;-60
2021/03/29 08:27:01;;;;;;;11.70;4.20;;;;;;;17.16;42.73;101005.88;5098318;28;20069;-60
2021/03/29 08:29:30;;;;;;;15.75;6.15;;;;;;;17.27;42.75;101009.00;5097001;28;20052;-61
2021/03/29 08:32:04;;;;;;;10.82;4.80;;;;;;;17.28;42.25;101010.72;5097541;28;20459;-60
2021/03/29 08:34:32;;;;;;;10.80;4.93;;;;;;;17.17;42.32;101007.59;5080398;28;20044;-60
2021/03/29 08:37:02;;;;;;;11.13;4.45;;;;;;;17.32;42.00;101002.69;5096638;28;20049;-61
2021/03/29 08:39:30;;;;;;;12.52;4.55;;;;;;;17.34;42.46;101004.38;5097434;28;20040;-60
2021/03/29 08:41:56;;;;;;;10.70;4.10;;;;;;;17.34;42.31;101008.81;5097657;28;20362;-60
2021/03/29 08:44:22;;;;;;;9.75;4.10;;;;;;;17.41;42.00;101015.63;5079708;28;20049;-60
2021/03/29 08:46:50;;;;;;;7.85;3.85;;;;;;;17.48;41.65;101018.03;5096434;28;20062;-60
2021/03/29 08:49:16;;;;;;;8.70;4.75;;;;;;;17.54;41.19;101016.91;5096383;28;20036;-60
2021/03/29 08:51:42;;;;;;;8.98;4.13;;;;;;;17.37;41.09;101017.50;5096829;28;20110;-60
2021/03/29 08:54:08;;;;;;;10.02;4.00;;;;;;;17.41;41.09;101020.91;5097108;28;20040;-60
2021/03/29 08:56:40;;;;;;;9.85;3.72;;;;;;;17.49;41.11;101021.53;5096278;28;20169;-60
2021/03/29 08:59:07;;;;;;;12.52;4.30;;;;;;;17.61;41.01;101023.72;5096468;28;20067;-60
2021/03/29 09:01:33;;;;;;;9.98;3.38;;;;;;;17.65;40.11;101021.88;5097270;28;20127;-59
2021/03/29 09:04:02;;;;;;;11.68;3.70;;;;;;;17.64;40.63;101017.47;5097258;28;20055;-60
2021/03/29 09:06:29;;;;;;;9.88;4.20;;;;;;;17.48;40.92;101027.72;5095924;28;20044;-60
2021/03/29 09:08:55;;;;;;;10.75;3.60;;;;;;;17.44;40.71;101037.56;5097334;28;20066;-60
2021/03/29 09:11:21;;;;;;;12.27;3.70;;;;;;;17.34;40.72;101030.00;5097154;28;20109;-60
2021/03/29 09:13:47;;;;;;;9.30;3.75;;;;;;;17.23;41.07;101031.22;5096720;28;20048;-60
2021/03/29 09:16:13;;;;;;;9.20;3.70;;;;;;;17.45;40.76;101033.13;5096810;28;20040;-61
2021/03/29 09:18:39;;;;;;;9.63;3.72;;;;;;;17.26;41.42;101030.25;5096161;28;20135;-60
2021/03/29 09:21:04;;;;;;;6.97;3.15;;;;;;;17.37;41.45;101021.94;5096939;28;20044;-60
2021/03/29 09:23:32;;;;;;;12.27;4.10;;;;;;;17.62;40.59;101033.44;5096048;28;20062;-60
2021/03/29 09:26:03;;;;;;;10.48;3.70;;;;;;;17.66;40.37;101043.00;5096902;28;20051;-60
2021/03/29 09:28:49;;;;;;;11.05;4.95;;;;;;;17.60;39.37;101029.94;5096591;28;20047;-61
2021/03/29 09:31:22;;;;;;;10.77;3.75;;;;;;;17.48;40.57;101031.25;5096878;28;20135;-61
2021/03/29 09:33:48;;;;;;;12.00;3.90;;;;;;;17.67;40.22;101034.13;5095852;28;20044;-61
2021/03/29 09:36:18;;;;;;;7.72;4.10;;;;;;;17.61;39.84;101046.72;5096684;28;20055;-60
2021/03/29 09:38:48;;;;;;;8.98;3.42;;;;;;;17.60;40.09;101039.69;5095840;28;20048;-60
2021/03/29 09:41:23;;;;;;;14.30;4.25;;;;;;;17.33;40.33;101044.16;5096643;28;20052;-60
2021/03/29 09:43:51;;;;;;;11.52;3.53;;;;;;;17.33;40.71;101046.81;5095461;28;20454;-60
2021/03/29 09:46:16;;;;;;;9.02;3.33;;;;;;;17.26;40.58;101046.16;5095420;28;20051;-60
2021/03/29 09:48:42;;;;;;;10.93;3.78;;;;;;;17.12;40.04;101048.34;5095602;28;20353;-60
2021/03/29 09:51:21;;;;;;;6.90;3.50;;;;;;;17.00;40.24;101044.34;5096442;28;20132;-60
2021/03/29 09:53:47;;;;;;;10.35;5.80;;;;;;;16.89;41.41;101046.44;5095541;28;20051;-59
2021/03/29 09:56:13;;;;;;;11.40;4.80;;;;;;;16.91;41.03;101050.78;5096098;28;20362;-59
2021/03/29 09:58:43;;;;;;;13.35;6.28;;;;;;;17.14;41.69;101046.53;5097041;28;20056;-59
2021/03/29 10:01:17;;;;;;;10.32;4.13;;;;;;;17.27;41.04;101051.38;5096424;28;20130;-59
2021/03/29 10:03:56;;;;;;;10.63;3.50;;;;;;;17.35;40.76;101051.09;5096084;28;20434;-59
2021/03/29 10:06:22;;;;;;;6.97;3.47;;;;;;;17.18;40.97;101049.03;5096670;28;20040;-60
2021/03/29 10:09:07;;;;;;;9.85;3.90;;;;;;;17.37;40.52;101049.28;5078442;28;20064;-60
2021/03/29 10:11:43;;;;;;;12.55;3.42;;;;;;;17.27;40.17;101051.38;5097102;28;20132;-59
2021/03/29 10:14:09;;;;;;;9.00;3.90;;;;;;;17.20;40.46;101049.84;5078873;28;20063;-59
2021/03/29 10:16:51;;;;;;;10.00;3.42;;;;;;;17.18;41.41;101048.16;5104127;28;20368;-60
2021/03/29 10:19:19;;;;;;;11.13;3.58;;;;;;;17.41;41.41;101050.03;5103088;28;20048;-60
2021/03/29 10:22:01;;;;;;;10.00;3.47;;;;;;;17.39;40.91;101051.91;5104542;28;20145;-59
2021/03/29 10:24:27;;;;;;;9.57;3.35;;;;;;;17.38;41.32;101040.41;5100073;28;20472;-60
2021/03/29 10:26:58;;;;;;;12.93;3.50;;;;;;;17.32;41.54;101050.34;5100269;28;20056;-59
2021/03/29 10:29:30;;;;;;;8.35;3.10;;;;;;;17.36;41.43;101047.56;5100231;28;20101;-60
2021/03/29 10:31:56;;;;;;;10.95;3.38;;;;;;;17.45;41.88;101038.41;5099311;28;20113;-60
2021/03/29 10:34:22;;;;;;;8.82;3.38;;;;;;;17.64;41.96;101031.56;5100063;28;20040;-59
2021/03/29 10:36:48;;;;;;;8.85;2.63;;;;;;;17.80;41.33;101037.22;5100100;28;20064;-60
2021/03/29 10:39:13;;;;;;;9.05;3.15;;;;;;;17.78;41.35;101032.91;5099769;28;20048;-60
2021/03/29 10:41:39;;;;;;;9.80;3.72;;;;;;;17.85;41.51;101040.59;5099730;28;20046;-60
2021/03/29 10:44:05;;;;;;;7.35;2.85;;;;;;;17.87;41.26;101041.38;5100758;28;20044;-59
2021/03/29 10:46:32;;;;;;;10.77;3.35;;;;;;;17.86;41.18;101047.63;5099625;28;20460;-58
2021/03/29 10:48:58;;;;;;;8.60;2.80;;;;;;;17.65;41.59;101048.34;5100141;28;20040;-58
2021/03/29 10:51:23;;;;;;;9.63;3.08;;;;;;;17.50;42.29;101042.66;5099455;28;20495;-59
2021/03/29 10:53:49;;;;;;;7.55;3.17;;;;;;;17.46;42.76;101038.38;5099586;28;20073;-60
2021/03/29 10:56:15;;;;;;;10.20;2.72;;;;;;;17.50;43.00;101044.44;5099453;28;20036;-60
2021/03/29 10:58:41;;;;;;;9.50;2.72;;;;;;;17.45;43.20;101035.78;5099359;28;20186;-60
2021/03/29 11:01:06;;;;;;;7.60;2.97;;;;;;;17.57;43.46;101032.72;5099301;28;20048;-60
2021/03/29 11:03:32;;;;;;;10.90;3.53;;;;;;;17.55;43.43;101036.31;5099388;28;20071;-60
2021/03/29 11:05:58;;;;;;;9.63;4.03;;;;;;;17.55;42.94;101037.22;5099588;28;20054;-60
2021/03/29 11:08:24;;;;;;;11.75;4.53;;;;;;;17.56;43.06;101035.44;5098948;28;20052;-60
2021/03/29 11:10:50;;;;;;;10.60;3.80;;;;;;;17.40;44.30;101035.09;5099849;28;20050;-60
2021/03/29 11:13:16;;;;;;;13.60;5.35;;;;;;;17.32;44.30;101031.81;5081386;28;20036;-60
2021/03/29 11:15:42;;;;;;;14.38;5.90;;;;;;;17.24;45.14;101027.63;5098496;28;20046;-60
2021/03/29 11:18:08;;;;;;;9.23;4.50;;;;;;;17.23;45.86;101038.31;5099003;28;20048;-60
2021/03/29 11:20:34;;;;;;;9.07;3.47;;;;;;;17.39;45.82;101030.72;5099265;28;20093;-60
2021/03/29 11:23:00;;;;;;;11.68;3.42;;;;;;;17.35;46.14;101024.63;5098098;28;20055;-60
2021/03/29 11:25:26;;;;;;;9.95;3.20;;;;;;;17.33;46.69;101026.47;5098828;28;20052;-60
2021/03/29 11:27:52;;;;;;;12.00;3.63;;;;;;;17.41;46.23;101028.84;5098736;28;20044;-60
2021/03/29 11:30:18;;;;;;;8.93;3.58;;;;;;;17.28;46.85;101042.50;5097606;28;20055;-60
2021/03/29 11:32:44;;;;;;;8.57;3.40;;;;;;;17.15;47.60;101030.59;5098995;28;20056;-60